Time;durP1;ratioP1;P1;durP2;ratioP2;P2;SDS_P1;SDS_P2;PMS_P1;PMS_P2;Temp;Humidity;BMP_temperature;BMP_pressure;BME280_temperature;BME280_humidity;BME280_pressure;Samples;Min_cycle;Max_cycle;Signal;HPM_P1;HPM_P2
2023/04/23 00:00:23;;;;;;;38.87;23.43;;;9.10;99.90;;;;;;5051656;28;20251;-58
2023/04/23 00:02:54;;;;;;;37.30;24.20;;;9.10;99.90;;;;;;5049922;28;20216;-58
2023/04/23 00:05:26;;;;;;;35.07;23.30;;;9.20;99.90;;;;;;5044829;28;20221;-58
2023/04/23 00:07:58;;;;;;;36.00;23.93;;;9.20;99.90;;;;;;5046889;28;20564;-58
2023/04/23 00:10:27;;;;;;;33.00;22.83;;;9.20;99.90;;;;;;5046357;28;20657;-58
2023/04/23 00:12:56;;;;;;;35.30;23.33;;;9.30;99.90;;;;;;5048312;28;20197;-58
2023/04/23 00:15:27;;;;;;;36.70;22.57;;;9.30;99.90;;;;;;5048611;28;20220;-58
2023/04/23 00:17:55;;;;;;;32.30;21.90;;;9.30;99.90;;;;;;5049001;28;20282;-58
2023/04/23 00:20:23;;;;;;;31.30;22.20;;;9.40;99.90;;;;;;5047750;28;20244;-58
2023/04/23 00:22:51;;;;;;;33.27;22.57;;;9.40;99.90;;;;;;5042389;28;20225;-58
2023/04/23 00:25:21;;;;;;;34.03;22.73;;;9.40;99.90;;;;;;5051215;28;20669;-58
2023/04/23 00:27:49;;;;;;;32.80;21.80;;;9.40;99.90;;;;;;5046588;28;20251;-58
2023/04/23 00:30:17;;;;;;;32.80;22.20;;;9.30;99.90;;;;;;5043936;28;20231;-58
2023/04/23 00:32:46;;;;;;;33.90;22.47;;;9.30;99.90;;;;;;5053248;28;21939;-58
2023/04/23 00:35:15;;;;;;;33.10;22.43;;;9.30;99.90;;;;;;5040285;28;20637;-58
2023/04/23 00:37:43;;;;;;;34.13;22.57;;;9.20;99.90;;;;;;5049410;28;20247;-58
2023/04/23 00:40:11;;;;;;;34.10;21.57;;;9.20;99.90;;;;;;5046084;28;20201;-58
2023/04/23 00:42:43;;;;;;;36.23;22.87;;;9.10;99.90;;;;;;5047224;28;20212;-58
2023/04/23 00:45:12;;;;;;;32.77;22.20;;;9.00;99.90;;;;;;5045162;28;20240;-58
2023/04/23 00:47:40;;;;;;;39.50;22.53;;;8.90;99.90;;;;;;5045639;28;20229;-58
2023/04/23 00:50:10;;;;;;;33.70;22.37;;;8.90;99.90;;;;;;5041167;28;20227;-58
2023/04/23 00:52:39;;;;;;;31.93;21.30;;;8.90;99.90;;;;;;5045977;28;20203;-58
2023/04/23 00:55:08;;;;;;;31.53;21.33;;;8.80;99.90;;;;;;5046385;28;20189;-58
2023/04/23 00:57:37;;;;;;;34.43;22.77;;;8.80;99.90;;;;;;5039755;28;20649;-58
2023/04/23 01:00:08;;;;;;;37.17;21.97;;;8.90;99.90;;;;;;5047190;28;20221;-58
2023/04/23 01:05:41;;;;;;;33.17;22.07;;;9.00;99.90;;;;;;5039857;23;20283;-57
2023/04/23 01:08:14;;;;;;;32.13;21.83;;;9.20;99.90;;;;;;4943193;28;20632;-57
2023/04/23 01:10:43;;;;;;;38.70;22.27;;;9.40;99.90;;;;;;4947452;28;20188;-57
2023/04/23 01:13:12;;;;;;;31.50;21.17;;;9.50;99.90;;;;;;4950666;28;20231;-57
2023/04/23 01:15:43;;;;;;;30.70;20.73;;;9.60;99.90;;;;;;4947082;28;20227;-57
2023/04/23 01:18:12;;;;;;;31.10;21.13;;;9.60;99.90;;;;;;4949520;28;20230;-58
2023/04/23 01:20:42;;;;;;;30.67;20.17;;;9.70;99.90;;;;;;4967764;28;20669;-58
2023/04/23 01:23:12;;;;;;;30.97;20.93;;;9.70;99.90;;;;;;4959311;28;20228;-57
2023/04/23 01:25:40;;;;;;;31.20;20.93;;;9.80;99.90;;;;;;4965280;28;20233;-57
2023/04/23 01:28:09;;;;;;;29.50;20.80;;;9.90;99.90;;;;;;4954702;28;20740;-58
2023/04/23 01:30:39;;;;;;;31.60;20.27;;;9.90;99.90;;;;;;4953737;28;20759;-57
2023/04/23 01:33:08;;;;;;;32.07;21.17;;;9.90;99.90;;;;;;4956733;28;20571;-57
2023/04/23 01:35:37;;;;;;;28.40;19.27;;;10.00;99.90;;;;;;4961089;28;20263;-58
2023/04/23 01:38:06;;;;;;;28.77;19.90;;;10.00;99.90;;;;;;4956097;28;20243;-58
2023/04/23 01:40:36;;;;;;;28.23;19.50;;;10.00;99.90;;;;;;4953725;28;20196;-57
2023/04/23 01:43:06;;;;;;;28.03;19.00;;;10.00;99.90;;;;;;4953842;28;20241;-57
2023/04/23 01:45:34;;;;;;;28.07;19.50;;;10.00;99.90;;;;;;4953674;28;20223;-57
2023/04/23 01:48:02;;;;;;;27.93;19.03;;;10.00;99.90;;;;;;4952485;28;20219;-58
2023/04/23 01:50:31;;;;;;;36.23;18.77;;;10.00;99.90;;;;;;4965424;28;20215;-58
2023/04/23 01:52:59;;;;;;;28.53;18.30;;;10.00;99.90;;;;;;4957069;28;20220;-57
2023/04/23 01:55:27;;;;;;;28.63;18.27;;;10.00;99.90;;;;;;4965091;28;20262;-56
2023/04/23 01:57:59;;;;;;;28.70;18.40;;;10.00;99.90;;;;;;4954593;28;20635;-57
2023/04/23 02:00:27;;;;;;;27.30;17.83;;;9.90;99.90;;;;;;4954582;28;20216;-57
2023/04/23 02:02:56;;;;;;;25.13;18.57;;;9.80;99.90;;;;;;4955217;28;20238;-57
2023/04/23 02:05:28;;;;;;;25.37;17.77;;;9.80;99.90;;;;;;4956138;28;20235;-57
2023/04/23 02:07:57;;;;;;;26.10;18.07;;;9.70;99.90;;;;;;4955865;28;20215;-58
2023/04/23 02:10:25;;;;;;;24.83;17.90;;;9.70;99.90;;;;;;4957474;28;20270;-56
2023/04/23 02:12:54;;;;;;;26.97;17.27;;;9.70;99.90;;;;;;4954902;28;20635;-57
2023/04/23 02:15:23;;;;;;;26.53;17.00;;;9.70;99.90;;;;;;4953990;28;21005;-58
2023/04/23 02:17:52;;;;;;;27.13;16.83;;;9.70;99.90;;;;;;4953025;28;20219;-57
2023/04/23 02:20:21;;;;;;;26.20;17.77;;;9.70;99.90;;;;;;4953934;28;20272;-57
2023/04/23 02:22:50;;;;;;;24.23;16.80;;;9.70;99.90;;;;;;4946831;28;20231;-57
2023/04/23 02:25:20;;;;;;;23.60;16.67;;;9.70;99.90;;;;;;4954411;28;20192;-57
2023/04/23 02:27:49;;;;;;;23.67;16.40;;;9.60;99.90;;;;;;4951157;28;20216;-57
2023/04/23 02:30:17;;;;;;;26.57;16.77;;;9.60;99.90;;;;;;4950479;28;20733;-57
2023/04/23 02:32:47;;;;;;;28.73;16.33;;;9.50;99.90;;;;;;4950779;28;20211;-57
2023/04/23 02:35:15;;;;;;;25.00;16.23;;;9.50;99.90;;;;;;4951924;28;20687;-57
2023/04/23 02:37:43;;;;;;;25.43;17.10;;;9.40;99.90;;;;;;4955838;28;20281;-57
2023/04/23 02:40:12;;;;;;;22.60;16.20;;;9.40;99.90;;;;;;4960675;28;20553;-58
2023/04/23 02:42:40;;;;;;;23.87;16.87;;;9.30;99.90;;;;;;4954494;28;20232;-57
2023/04/23 02:45:11;;;;;;;24.63;16.90;;;9.20;99.90;;;;;;4953847;28;20223;-57
2023/04/23 02:47:39;;;;;;;31.07;17.47;;;9.20;99.90;;;;;;4950609;28;20224;-58
2023/04/23 02:50:10;;;;;;;22.83;16.37;;;9.20;99.90;;;;;;4946803;28;20224;-57
2023/04/23 02:52:38;;;;;;;24.50;17.03;;;9.20;99.90;;;;;;4955613;28;20200;-58
2023/04/23 02:55:08;;;;;;;24.53;17.10;;;9.20;99.90;;;;;;4951033;28;20196;-58
2023/04/23 02:57:36;;;;;;;25.47;16.50;;;9.20;99.90;;;;;;4953692;28;20220;-57
2023/04/23 03:00:07;;;;;;;25.40;17.10;;;9.20;99.90;;;;;;4954734;28;20279;-57
2023/04/23 03:02:35;;;;;;;25.33;17.23;;;9.20;99.90;;;;;;4961561;28;20216;-57
2023/04/23 03:05:04;;;;;;;24.10;16.37;;;9.20;99.90;;;;;;4945495;28;20311;-58
2023/04/23 03:07:34;;;;;;;23.50;15.93;;;9.20;99.90;;;;;;4952498;28;20617;-58
2023/04/23 03:10:02;;;;;;;23.73;16.13;;;9.20;99.90;;;;;;4960212;28;20234;-57
2023/04/23 03:12:31;;;;;;;23.33;16.07;;;9.10;99.90;;;;;;4955225;28;20673;-57
2023/04/23 03:14:59;;;;;;;21.73;16.10;;;9.10;99.90;;;;;;4955220;28;20211;-58
2023/04/23 03:17:27;;;;;;;27.40;15.87;;;9.00;99.90;;;;;;4962780;28;20593;-58
2023/04/23 03:19:55;;;;;;;28.33;16.33;;;9.00;99.90;;;;;;4947910;28;20247;-57
2023/04/23 03:22:24;;;;;;;23.93;16.70;;;8.90;99.90;;;;;;4949494;28;20598;-56
2023/04/23 03:24:53;;;;;;;24.23;16.13;;;8.90;99.90;;;;;;4955113;28;20297;-58
2023/04/23 03:27:22;;;;;;;25.33;16.07;;;8.80;99.90;;;;;;4956102;28;20215;-57
2023/04/23 03:29:50;;;;;;;25.70;16.60;;;8.80;99.90;;;;;;4947870;28;21045;-57
2023/04/23 03:32:18;;;;;;;26.17;16.87;;;8.80;99.90;;;;;;4953997;28;20228;-57
2023/04/23 03:34:46;;;;;;;21.90;15.37;;;8.70;99.90;;;;;;4950589;28;20236;-58
2023/04/23 03:37:15;;;;;;;22.70;15.90;;;8.70;99.90;;;;;;4952020;28;20211;-57
2023/04/23 03:39:43;;;;;;;21.20;15.40;;;8.70;99.90;;;;;;4955382;28;20228;-57
2023/04/23 03:42:12;;;;;;;24.40;15.87;;;8.70;99.90;;;;;;4952965;28;20679;-57
2023/04/23 03:44:41;;;;;;;23.53;14.90;;;8.70;99.90;;;;;;4954296;28;20331;-57
2023/04/23 03:47:09;;;;;;;23.00;15.33;;;8.70;99.90;;;;;;4953070;28;20231;-57
2023/04/23 03:49:39;;;;;;;20.90;14.37;;;8.70;99.90;;;;;;4955072;28;20204;-58
2023/04/23 03:52:07;;;;;;;20.73;13.70;;;8.80;99.90;;;;;;4951908;28;20196;-57
2023/04/23 03:54:35;;;;;;;23.47;13.93;;;8.70;99.90;;;;;;4953472;28;20222;-57
2023/04/23 03:57:03;;;;;;;19.20;12.43;;;8.70;99.90;;;;;;4952129;28;20267;-58
2023/04/23 03:59:33;;;;;;;17.53;12.50;;;8.70;99.90;;;;;;4946784;28;20246;-57
2023/04/23 04:02:02;;;;;;;22.00;12.90;;;8.70;99.90;;;;;;4951623;28;20299;-58
2023/04/23 04:04:32;;;;;;;19.93;13.43;;;8.70;99.90;;;;;;4950364;28;20279;-57
2023/04/23 04:07:00;;;;;;;21.53;12.00;;;8.70;99.90;;;;;;4947920;28;20273;-57
2023/04/23 04:09:29;;;;;;;17.50;12.73;;;8.70;99.90;;;;;;4954012;28;20583;-57
2023/04/23 04:11:57;;;;;;;19.87;12.67;;;8.70;99.90;;;;;;4953288;28;20226;-57
2023/04/23 04:14:25;;;;;;;19.00;12.63;;;8.70;99.90;;;;;;4950733;28;20602;-57
2023/04/23 04:16:55;;;;;;;19.97;12.77;;;8.70;99.90;;;;;;4956682;28;20231;-58
2023/04/23 04:19:24;;;;;;;17.23;12.30;;;8.70;99.90;;;;;;4950012;28;20204;-58
2023/04/23 04:21:52;;;;;;;17.13;12.33;;;8.70;99.90;;;;;;4951624;28;20199;-57
2023/04/23 04:24:21;;;;;;;16.60;12.23;;;8.70;99.90;;;;;;4952942;28;20228;-58
2023/04/23 04:26:52;;;;;;;18.57;12.40;;;8.60;99.90;;;;;;4948925;28;20219;-57
2023/04/23 04:29:22;;;;;;;17.77;12.20;;;8.60;99.90;;;;;;4942643;28;20219;-57
2023/04/23 04:31:51;;;;;;;19.13;12.50;;;8.60;99.90;;;;;;4957146;28;20228;-57
2023/04/23 04:34:21;;;;;;;17.00;11.80;;;8.60;99.90;;;;;;4951856;28;20585;-58
2023/04/23 04:36:52;;;;;;;18.30;11.70;;;8.60;99.90;;;;;;4955361;28;20219;-58
2023/04/23 04:39:21;;;;;;;19.90;12.37;;;8.70;99.90;;;;;;4958059;28;20215;-58
2023/04/23 04:41:49;;;;;;;16.10;11.87;;;8.60;99.90;;;;;;4948166;28;20216;-57
2023/04/23 04:44:17;;;;;;;18.13;11.57;;;8.60;99.90;;;;;;4949244;28;20737;-57
2023/04/23 04:46:46;;;;;;;15.97;11.73;;;8.50;99.90;;;;;;4953966;28;20219;-57
2023/04/23 04:49:18;;;;;;;20.33;12.20;;;8.50;99.90;;;;;;4959583;28;20503;-58
2023/04/23 04:51:47;;;;;;;19.30;12.27;;;8.50;99.90;;;;;;4937808;28;20228;-57
2023/04/23 04:54:16;;;;;;;19.50;12.27;;;8.40;99.90;;;;;;4952723;28;20831;-57
2023/04/23 04:56:44;;;;;;;21.20;13.03;;;8.50;99.90;;;;;;4952747;28;20227;-57
2023/04/23 04:59:12;;;;;;;19.00;11.90;;;8.50;99.90;;;;;;4949305;28;20223;-58
2023/04/23 05:01:41;;;;;;;15.43;11.70;;;8.50;99.90;;;;;;4947056;28;20559;-57
2023/04/23 05:04:09;;;;;;;14.83;10.57;;;8.50;99.90;;;;;;4948533;28;20278;-58
2023/04/23 05:06:40;;;;;;;15.27;11.47;;;8.60;99.90;;;;;;4950851;28;20274;-57
2023/04/23 05:09:11;;;;;;;14.10;10.50;;;8.70;99.90;;;;;;4949394;28;20276;-57
2023/04/23 05:11:40;;;;;;;16.37;10.47;;;8.70;99.90;;;;;;4953733;28;20287;-57
2023/04/23 05:14:08;;;;;;;16.40;10.03;;;8.80;99.90;;;;;;4956293;28;20719;-57
2023/04/23 05:16:36;;;;;;;17.30;9.93;;;8.80;99.90;;;;;;4959327;28;20582;-57
2023/04/23 05:19:05;;;;;;;14.97;9.73;;;8.90;99.90;;;;;;4956565;28;20198;-57
2023/04/23 05:21:33;;;;;;;14.73;9.63;;;9.00;99.90;;;;;;4951533;28;20220;-59
2023/04/23 05:24:01;;;;;;;17.70;8.87;;;9.00;99.90;;;;;;4949744;28;20227;-57
2023/04/23 05:26:31;;;;;;;11.30;9.17;;;9.10;99.90;;;;;;4958309;28;20275;-58
2023/04/23 05:28:59;;;;;;;16.77;8.90;;;9.30;99.90;;;;;;4941506;28;20224;-58
2023/04/23 05:31:27;;;;;;;11.13;8.63;;;9.30;99.90;;;;;;4945564;28;20193;-58
2023/04/23 05:33:56;;;;;;;12.77;7.93;;;9.50;99.90;;;;;;4950878;28;20340;-59
2023/04/23 05:36:24;;;;;;;13.13;8.87;;;9.60;99.90;;;;;;4950548;28;20728;-57
2023/04/23 05:38:52;;;;;;;14.00;9.17;;;9.80;99.90;;;;;;4946414;28;20219;-57
2023/04/23 05:41:21;;;;;;;16.03;8.80;;;10.00;99.90;;;;;;4949683;28;20271;-58
2023/04/23 05:43:50;;;;;;;15.43;8.53;;;10.30;99.90;;;;;;4958599;28;20629;-57
2023/04/23 05:46:19;;;;;;;11.30;8.60;;;10.40;99.90;;;;;;4953144;28;20207;-58
2023/04/23 05:48:47;;;;;;;12.90;8.60;;;10.60;99.90;;;;;;4948966;28;20315;-58
2023/04/23 05:51:16;;;;;;;13.07;8.00;;;10.80;99.90;;;;;;4954441;28;21242;-58
2023/04/23 05:53:44;;;;;;;11.30;7.60;;;11.00;99.90;;;;;;4943761;28;20243;-58
2023/04/23 05:56:12;;;;;;;11.93;6.73;;;11.10;99.90;;;;;;4951298;28;20265;-58
2023/04/23 05:58:40;;;;;;;9.10;6.47;;;11.20;99.90;;;;;;4950469;28;20211;-57
2023/04/23 06:01:10;;;;;;;7.43;6.67;;;11.30;99.90;;;;;;4953212;28;20621;-58
2023/04/23 06:03:40;;;;;;;10.63;6.97;;;11.50;99.90;;;;;;4946828;28;20224;-57
2023/04/23 06:06:09;;;;;;;17.50;7.03;;;11.60;99.90;;;;;;4951865;28;20223;-58
2023/04/23 06:08:37;;;;;;;9.63;6.67;;;11.70;99.90;;;;;;4950306;28;21519;-58
2023/04/23 06:11:06;;;;;;;8.83;6.00;;;11.80;99.90;;;;;;4965121;28;20228;-58
2023/04/23 06:13:39;;;;;;;8.63;5.63;;;12.10;99.90;;;;;;4947323;28;20215;-58
2023/04/23 06:16:12;;;;;;;10.90;6.07;;;12.20;99.90;;;;;;4952277;28;20199;-57
2023/04/23 06:18:40;;;;;;;10.53;5.40;;;12.30;99.90;;;;;;4944122;28;20219;-57
2023/04/23 06:21:09;;;;;;;6.70;5.77;;;12.50;99.90;;;;;;4946345;28;20231;-58
2023/04/23 06:23:37;;;;;;;12.27;5.27;;;12.60;99.90;;;;;;4951361;28;20278;-58
2023/04/23 06:26:06;;;;;;;7.97;5.27;;;12.60;99.90;;;;;;4953298;28;20224;-58
2023/04/23 06:28:34;;;;;;;9.10;4.97;;;12.60;99.90;;;;;;4948955;28;20223;-58
2023/04/23 06:31:04;;;;;;;13.83;4.80;;;12.60;99.90;;;;;;4948716;28;20188;-58
2023/04/23 06:33:36;;;;;;;8.97;4.70;;;12.70;99.90;;;;;;4951857;28;20311;-58
2023/04/23 06:36:04;;;;;;;9.23;4.50;;;12.90;99.90;;;;;;4949592;28;20227;-58
2023/04/23 06:38:33;;;;;;;9.90;4.13;;;13.10;99.90;;;;;;4943192;28;20271;-58
2023/04/23 06:41:01;;;;;;;8.40;4.40;;;13.30;99.90;;;;;;4944163;28;20310;-58
2023/04/23 06:43:29;;;;;;;6.53;4.23;;;13.40;99.90;;;;;;4939990;28;20212;-58
2023/04/23 06:45:57;;;;;;;12.83;4.77;;;13.40;99.90;;;;;;4936603;28;20516;-58
2023/04/23 06:48:25;;;;;;;7.63;4.03;;;13.50;99.90;;;;;;4940895;28;20265;-58
2023/04/23 06:50:55;;;;;;;9.03;4.20;;;13.60;99.90;;;;;;4944046;28;20303;-58
2023/04/23 06:53:23;;;;;;;14.67;3.70;;;13.80;99.90;;;;;;4951836;28;20239;-58
2023/04/23 06:55:51;;;;;;;9.83;3.80;;;13.90;99.90;;;;;;4947979;28;20221;-58
2023/04/23 06:58:22;;;;;;;6.77;3.40;;;14.00;99.90;;;;;;4948194;28;20188;-58
2023/04/23 07:00:50;;;;;;;10.43;4.27;;;14.10;99.90;;;;;;4945340;28;20555;-58
2023/04/23 07:03:19;;;;;;;9.10;4.37;;;14.20;99.90;;;;;;4949355;28;20234;-58
2023/04/23 07:05:47;;;;;;;9.57;3.93;;;14.30;99.90;;;;;;4944647;28;20235;-58
2023/04/23 07:08:16;;;;;;;7.37;3.33;;;14.50;99.90;;;;;;4955233;28;20228;-58
2023/04/23 07:10:44;;;;;;;8.60;3.73;;;14.70;99.90;;;;;;4952946;28;20251;-57
2023/04/23 07:13:13;;;;;;;7.07;3.70;;;14.90;99.90;;;;;;4955382;28;20188;-58
2023/04/23 07:15:41;;;;;;;8.90;3.40;;;15.10;99.90;;;;;;4953130;28;20247;-57
2023/04/23 07:18:10;;;;;;;4.77;3.30;;;15.30;99.90;;;;;;4955187;28;20228;-58
2023/04/23 07:20:38;;;;;;;9.47;3.27;;;15.40;99.90;;;;;;4958012;28;20295;-58
2023/04/23 07:23:06;;;;;;;8.90;3.27;;;15.30;99.90;;;;;;4950730;28;20233;-58
2023/04/23 07:25:36;;;;;;;7.87;3.00;;;15.20;99.90;;;;;;4952040;28;20861;-58
2023/04/23 07:28:05;;;;;;;5.63;3.10;;;15.40;99.90;;;;;;4947062;28;20667;-57
2023/04/23 07:30:33;;;;;;;5.30;3.17;;;15.50;99.90;;;;;;4950861;28;20232;-57
2023/04/23 07:33:01;;;;;;;9.63;3.27;;;15.60;99.90;;;;;;4952071;28;20218;-58
2023/04/23 07:35:30;;;;;;;10.70;3.87;;;15.80;99.90;;;;;;4951275;28;20311;-58
2023/04/23 07:37:58;;;;;;;5.23;3.20;;;15.80;99.90;;;;;;4952903;28;20265;-57
2023/04/23 07:40:26;;;;;;;6.23;3.23;;;15.70;99.90;;;;;;4952633;28;20216;-57
2023/04/23 07:42:57;;;;;;;5.10;2.90;;;15.70;99.90;;;;;;4947501;28;20579;-58
2023/04/23 07:45:25;;;;;;;3.97;3.10;;;15.70;99.90;;;;;;4952848;28;20220;-58
2023/04/23 07:47:54;;;;;;;9.03;3.20;;;15.80;99.90;;;;;;4950357;28;20220;-57
2023/04/23 07:50:22;;;;;;;8.37;3.23;;;15.90;99.90;;;;;;4956028;28;20232;-57
2023/04/23 07:52:50;;;;;;;8.60;2.97;;;15.80;99.90;;;;;;4948451;28;21558;-58
2023/04/23 07:55:24;;;;;;;5.57;3.33;;;15.80;99.90;;;;;;4952695;28;20670;-59
2023/04/23 07:57:52;;;;;;;8.83;3.00;;;15.90;99.90;;;;;;4953454;28;20220;-58
2023/04/23 08:00:22;;;;;;;6.17;3.30;;;16.10;99.90;;;;;;4962329;28;20230;-57
2023/04/23 08:02:51;;;;;;;5.37;2.60;;;16.40;99.90;;;;;;4950185;28;20238;-58
2023/04/23 08:05:20;;;;;;;7.87;2.80;;;16.50;99.90;;;;;;4946730;28;20901;-58
2023/04/23 08:07:48;;;;;;;8.63;2.90;;;16.80;99.90;;;;;;4957755;28;20234;-58
2023/04/23 08:10:16;;;;;;;3.03;2.67;;;16.90;99.90;;;;;;4945475;28;20227;-58
2023/04/23 08:12:44;;;;;;;7.00;2.80;;;17.00;99.90;;;;;;4955753;28;20687;-57
2023/04/23 08:15:13;;;;;;;8.87;2.93;;;17.20;99.90;;;;;;4946748;28;20279;-58
2023/04/23 08:17:42;;;;;;;6.03;2.70;;;17.30;99.90;;;;;;4951190;28;20702;-58
2023/04/23 08:20:11;;;;;;;6.97;3.13;;;17.30;99.90;;;;;;4951685;28;20695;-57
2023/04/23 08:22:39;;;;;;;9.13;3.00;;;17.20;99.90;;;;;;4948533;28;20286;-58
2023/04/23 08:25:09;;;;;;;7.10;2.73;;;17.20;99.90;;;;;;4951049;28;20196;-58
2023/04/23 08:27:37;;;;;;;13.07;3.10;;;17.10;99.90;;;;;;4942593;28;20318;-57
2023/04/23 08:30:07;;;;;;;7.87;2.83;;;17.00;99.90;;;;;;4948279;28;20220;-58
2023/04/23 08:32:35;;;;;;;6.10;2.47;;;16.90;99.90;;;;;;4950817;28;20223;-59
2023/04/23 08:35:06;;;;;;;8.40;2.77;;;17.10;99.90;;;;;;4949208;28;20616;-58
2023/04/23 08:37:35;;;;;;;8.50;2.53;;;17.10;99.90;;;;;;4951647;28;20235;-57
2023/04/23 08:40:08;;;;;;;5.10;2.73;;;17.40;99.90;;;;;;4948838;28;20259;-58
2023/04/23 08:42:41;;;;;;;7.43;2.90;;;17.60;99.90;;;;;;4952346;28;20381;-58
2023/04/23 08:45:11;;;;;;;5.23;2.33;;;17.40;99.90;;;;;;4944292;28;20231;-57
2023/04/23 08:47:42;;;;;;;5.43;2.60;;;16.80;99.90;;;;;;4955295;28;20286;-58
2023/04/23 08:50:13;;;;;;;11.60;2.53;;;16.50;99.90;;;;;;4945754;28;20725;-57
2023/04/23 08:52:44;;;;;;;5.73;2.50;;;16.30;99.90;;;;;;4950857;28;20255;-58
2023/04/23 08:55:14;;;;;;;5.07;2.67;;;16.20;99.90;;;;;;4945451;28;20238;-57
2023/04/23 08:57:43;;;;;;;6.23;2.47;;;16.30;99.90;;;;;;4947183;28;20227;-58
2023/04/23 09:00:15;;;;;;;8.63;2.67;;;16.60;99.90;;;;;;4948025;28;20220;-57
2023/04/23 09:02:45;;;;;;;7.90;2.53;;;16.70;99.90;;;;;;4944770;28;20612;-57
2023/04/23 09:05:15;;;;;;;10.83;2.60;;;16.50;99.90;;;;;;4948015;28;20612;-57
2023/04/23 09:07:44;;;;;;;5.50;2.70;;;16.40;99.90;;;;;;4952637;28;20938;-58
2023/04/23 09:10:14;;;;;;;12.93;3.27;;;16.30;99.90;;;;;;4949206;28;20334;-57
2023/04/23 09:12:46;;;;;;;9.47;2.97;;;16.20;99.90;;;;;;4944069;28;20962;-57
2023/04/23 09:15:15;;;;;;;7.30;2.60;;;16.20;99.90;;;;;;4948514;28;20229;-57
2023/04/23 09:17:45;;;;;;;4.70;2.40;;;16.00;99.90;;;;;;4950311;28;20232;-57
2023/04/23 09:20:15;;;;;;;8.07;2.30;;;15.90;99.90;;;;;;4947488;28;20226;-58
2023/04/23 09:22:45;;;;;;;8.17;2.43;;;15.80;99.90;;;;;;4950157;28;20642;-57
2023/04/23 09:25:18;;;;;;;10.73;2.80;;;15.70;99.90;;;;;;4951716;28;20240;-58
2023/04/23 09:27:47;;;;;;;7.23;2.30;;;15.60;99.90;;;;;;4943689;28;20222;-57
2023/04/23 09:30:16;;;;;;;11.67;2.50;;;15.50;99.90;;;;;;4947094;28;20335;-58
2023/04/23 09:32:46;;;;;;;8.10;2.50;;;15.50;99.90;;;;;;4948857;28;20239;-57
2023/04/23 09:35:18;;;;;;;6.17;2.27;;;15.50;99.90;;;;;;4949921;28;20454;-57
2023/04/23 09:37:49;;;;;;;7.60;3.10;;;15.50;99.90;;;;;;4946723;28;20647;-57
2023/04/23 09:40:18;;;;;;;7.50;2.73;;;15.50;99.90;;;;;;4948727;28;20228;-57
2023/04/23 09:42:49;;;;;;;6.23;1.90;;;15.50;99.90;;;;;;4946168;28;20591;-58
2023/04/23 09:45:18;;;;;;;7.83;2.20;;;15.70;99.90;;;;;;4944969;28;20352;-57
2023/04/23 09:47:50;;;;;;;8.33;2.67;;;15.60;99.90;;;;;;4946046;28;20591;-57
2023/04/23 09:50:31;;;;;;;4.03;2.20;;;15.70;99.90;;;;;;4946344;28;20251;-58
2023/04/23 09:52:59;;;;;;;4.23;1.83;;;15.60;99.90;;;;;;4953402;28;20223;-58
2023/04/23 09:55:29;;;;;;;9.83;2.70;;;15.70;99.90;;;;;;4947579;28;20287;-58
2023/04/23 09:58:02;;;;;;;6.50;2.47;;;15.70;99.90;;;;;;4946462;28;20291;-57
2023/04/23 10:00:34;;;;;;;6.33;2.33;;;15.70;99.90;;;;;;4945409;28;20666;-57
2023/04/23 10:03:02;;;;;;;11.83;2.50;;;15.60;99.90;;;;;;4945062;28;20225;-57
2023/04/23 10:05:32;;;;;;;6.67;2.50;;;15.50;99.90;;;;;;4945149;28;20314;-58
2023/04/23 10:08:21;;;;;;;4.47;2.00;;;15.50;99.90;;;;;;4949798;28;20248;-58
2023/04/23 10:10:50;;;;;;;9.63;2.23;;;15.80;99.90;;;;;;4951311;28;20232;-58
2023/04/23 10:13:37;;;;;;;8.10;2.07;;;15.80;99.90;;;;;;4947200;28;20211;-58
2023/04/23 10:16:06;;;;;;;5.03;2.13;;;16.10;99.90;;;;;;4948687;28;20192;-58
2023/04/23 10:18:54;;;;;;;6.13;2.33;;;16.50;99.90;;;;;;4947216;28;20284;-58
2023/04/23 10:21:27;;;;;;;8.77;2.40;;;16.90;99.90;;;;;;4947210;28;20227;-57
2023/04/23 10:24:06;;;;;;;4.97;2.47;;;17.00;99.90;;;;;;4951395;28;20259;-58
2023/04/23 10:26:37;;;;;;;8.10;1.87;;;16.80;99.90;;;;;;4950704;28;20248;-57
2023/04/23 10:29:09;;;;;;;5.90;1.93;;;16.50;99.90;;;;;;4953415;28;20220;-58
2023/04/23 10:31:37;;;;;;;7.37;2.33;;;16.20;99.90;;;;;;4957069;28;20688;-57
2023/04/23 10:34:06;;;;;;;4.17;2.10;;;16.10;99.90;;;;;;4959591;28;20196;-57
2023/04/23 10:36:37;;;;;;;8.60;2.40;;;15.60;99.90;;;;;;4946201;28;20229;-58
2023/04/23 10:39:07;;;;;;;11.10;2.57;;;15.30;99.90;;;;;;4952275;28;20224;-57
2023/04/23 10:41:38;;;;;;;8.13;2.13;;;15.20;99.90;;;;;;4957196;28;20682;-57
2023/04/23 10:44:07;;;;;;;7.33;2.10;;;15.40;99.90;;;;;;4952364;28;20222;-58
2023/04/23 10:46:35;;;;;;;5.67;2.47;;;15.80;99.90;;;;;;4948648;28;20232;-58
2023/04/23 10:49:13;;;;;;;6.73;1.93;;;16.30;99.90;;;;;;4951278;28;20186;-58
2023/04/23 10:51:45;;;;;;;10.73;2.50;;;16.60;99.90;;;;;;4948536;28;20225;-58
2023/04/23 10:54:35;;;;;;;3.77;1.80;;;16.60;99.90;;;;;;4952989;28;20242;-58
2023/04/23 10:57:05;;;;;;;8.40;2.10;;;16.60;99.90;;;;;;4948387;28;20758;-58
2023/04/23 10:59:35;;;;;;;5.80;2.20;;;16.50;99.90;;;;;;4952471;28;20687;-57
2023/04/23 11:02:07;;;;;;;5.97;2.30;;;16.40;99.90;;;;;;4950993;28;20253;-58
2023/04/23 11:04:41;;;;;;;3.57;1.93;;;16.10;99.90;;;;;;4951380;28;20303;-57
2023/04/23 11:07:12;;;;;;;6.07;2.07;;;16.10;99.90;;;;;;4954985;28;20242;-58
2023/04/23 11:09:43;;;;;;;5.40;1.70;;;16.10;99.90;;;;;;4947360;28;20679;-58
2023/04/23 11:12:13;;;;;;;3.17;1.60;;;16.30;99.90;;;;;;4954384;28;20311;-57
2023/04/23 11:14:46;;;;;;;5.57;1.70;;;16.20;99.90;;;;;;4953957;28;20706;-58
2023/04/23 11:17:16;;;;;;;3.33;1.53;;;16.20;99.90;;;;;;4950204;28;20225;-56
2023/04/23 11:20:09;;;;;;;3.77;2.00;;;16.10;99.90;;;;;;4953807;28;20229;-57
2023/04/23 11:22:40;;;;;;;7.07;1.90;;;15.80;99.90;;;;;;4950088;28;20619;-58
2023/04/23 11:25:10;;;;;;;4.10;1.80;;;15.60;99.90;;;;;;4947671;28;20196;-58
2023/04/23 11:27:40;;;;;;;7.40;2.07;;;15.20;99.90;;;;;;4954772;28;20259;-58
2023/04/23 11:30:13;;;;;;;2.87;1.90;;;15.00;99.90;;;;;;4951025;28;20280;-57
2023/04/23 11:32:41;;;;;;;3.43;1.97;;;14.80;99.90;;;;;;4953155;28;20228;-58
2023/04/23 11:35:10;;;;;;;3.60;1.80;;;14.80;99.90;;;;;;4954735;28;20223;-57
2023/04/23 11:37:43;;;;;;;4.13;1.93;;;14.70;99.90;;;;;;4954710;28;20184;-62
2023/04/23 11:40:17;;;;;;;4.87;2.00;;;14.50;99.90;;;;;;4950122;28;20205;-57
2023/04/23 11:42:48;;;;;;;5.53;2.00;;;14.40;99.90;;;;;;4951117;28;20226;-57
2023/04/23 11:45:18;;;;;;;5.53;2.40;;;14.30;99.90;;;;;;4949621;28;20224;-57
2023/04/23 11:47:52;;;;;;;6.33;2.50;;;14.40;99.90;;;;;;4937119;28;20221;-57
2023/04/23 11:50:21;;;;;;;4.10;2.17;;;14.30;99.90;;;;;;4944636;28;20215;-58
2023/04/23 11:52:51;;;;;;;3.40;1.80;;;14.50;99.90;;;;;;4950763;28;20227;-58
2023/04/23 11:55:20;;;;;;;6.87;2.00;;;14.60;99.90;;;;;;4953058;28;20295;-58
2023/04/23 11:57:50;;;;;;;6.83;2.33;;;14.70;99.90;;;;;;4950534;28;20634;-57
2023/04/23 12:00:21;;;;;;;4.80;2.20;;;14.70;99.90;;;;;;4945778;28;20271;-57
2023/04/23 12:02:57;;;;;;;5.30;2.33;;;14.60;99.90;;;;;;4953077;28;20251;-57
2023/04/23 12:05:29;;;;;;;7.87;2.23;;;14.60;99.90;;;;;;4945345;28;20326;-58
2023/04/23 12:08:09;;;;;;;6.23;2.00;;;14.60;99.90;;;;;;4950706;28;20224;-57
2023/04/23 12:10:49;;;;;;;7.33;2.10;;;14.40;99.90;;;;;;4951877;28;20184;-58
2023/04/23 12:13:22;;;;;;;4.07;1.83;;;14.30;99.90;;;;;;4954917;28;20195;-57
2023/04/23 12:15:52;;;;;;;2.47;1.83;;;14.10;99.90;;;;;;4954347;28;20227;-57
2023/04/23 12:18:21;;;;;;;7.57;2.20;;;13.90;99.90;;;;;;4952767;28;20244;-58
2023/04/23 12:20:50;;;;;;;2.57;1.83;;;13.70;99.90;;;;;;4953519;28;20227;-58
2023/04/23 12:23:19;;;;;;;3.40;2.00;;;13.50;99.90;;;;;;4953463;28;20224;-58
2023/04/23 12:25:48;;;;;;;4.17;2.37;;;13.30;99.90;;;;;;4949181;28;20966;-57
2023/04/23 12:28:16;;;;;;;6.63;2.80;;;13.20;99.90;;;;;;4949115;28;20606;-57
2023/04/23 12:30:44;;;;;;;4.60;2.40;;;13.00;99.90;;;;;;4954149;28;20220;-57
2023/04/23 12:33:15;;;;;;;6.50;2.60;;;12.90;99.90;;;;;;4952162;28;20594;-57
2023/04/23 12:35:45;;;;;;;3.67;2.63;;;12.80;99.90;;;;;;4948993;28;21196;-56
2023/04/23 12:38:25;;;;;;;5.80;2.57;;;12.80;99.90;;;;;;4953163;28;20314;-57
2023/04/23 12:40:55;;;;;;;6.83;2.63;;;12.70;99.90;;;;;;4951142;28;20223;-57
2023/04/23 12:43:24;;;;;;;5.27;2.83;;;12.70;99.90;;;;;;4953462;28;20216;-55
2023/04/23 12:45:54;;;;;;;3.83;2.70;;;12.70;99.90;;;;;;4953752;28;20215;-57
2023/04/23 12:48:23;;;;;;;5.30;2.83;;;12.80;99.90;;;;;;4945576;28;20690;-57
2023/04/23 12:50:51;;;;;;;14.17;3.80;;;12.80;99.90;;;;;;4949120;28;20234;-57
2023/04/23 12:53:19;;;;;;;8.40;3.10;;;13.00;99.90;;;;;;4946422;28;20228;-57
2023/04/23 12:55:49;;;;;;;7.37;2.83;;;13.00;99.90;;;;;;4947342;28;20279;-57